createdAt,value
2023-02-12T00:04:38.467Z,21.67
2023-02-12T00:09:40.171Z,23.88
2023-02-12T00:14:42.578Z,20.42
2023-02-12T00:19:44.268Z,18.65
2023-02-12T00:24:45.883Z,19.38
2023-02-12T00:29:47.529Z,19.90
2023-02-12T00:34:49.498Z,18.27
2023-02-12T00:39:51.130Z,18.77
2023-02-12T00:44:52.695Z,18.88
2023-02-12T00:49:54.270Z,22.98
2023-02-12T00:54:55.881Z,19.88
2023-02-12T00:59:57.454Z,18.75
2023-02-12T01:04:59.126Z,21.10
2023-02-12T01:10:00.715Z,20.10
2023-02-12T01:15:04.819Z,21.33
2023-02-12T01:20:11.085Z,16.10
2023-02-12T01:25:12.806Z,19.70
2023-02-12T01:30:15.274Z,16.58
2023-02-12T01:35:16.956Z,19.27
2023-02-12T01:40:19.087Z,20.83
2023-02-12T01:45:23.606Z,23.60
2023-02-12T01:50:25.366Z,19.23
2023-02-12T01:55:27.788Z,19.60
2023-02-12T02:00:29.476Z,17.77
2023-02-12T02:05:43.781Z,19.55
2023-02-12T02:10:45.368Z,22.17
2023-02-12T02:15:55.224Z,18.45
2023-02-12T02:21:27.060Z,22.38
2023-02-12T02:26:50.614Z,19.77
2023-02-12T02:31:59.046Z,21.33
2023-02-12T02:37:28.160Z,22.08
2023-02-12T02:42:37.464Z,17.13
2023-02-12T02:47:43.505Z,21.77
2023-02-12T02:53:16.734Z,16.70
2023-02-12T02:58:26.612Z,19.13
2023-02-12T03:04:07.776Z,19.45
2023-02-12T03:09:16.967Z,19.85
2023-02-12T03:14:37.810Z,17.83
2023-02-12T03:19:46.917Z,17.63
2023-02-12T03:24:53.968Z,17.30
2023-02-12T03:29:56.190Z,17.23
2023-02-12T03:35:15.159Z,15.60
2023-02-12T03:40:41.524Z,15.03
2023-02-12T03:46:02.028Z,15.82
2023-02-12T03:51:11.447Z,17.13
2023-02-12T03:56:53.628Z,18.77
2023-02-12T04:01:58.626Z,17.23
2023-02-12T04:07:01.009Z,18.98
2023-02-12T04:12:07.783Z,18.60
2023-02-12T04:17:20.011Z,19.70
2023-02-12T04:22:41.691Z,19.13
2023-02-12T04:28:14.320Z,18.27
2023-02-12T04:33:22.884Z,17.90
2023-02-12T04:38:34.881Z,17.67
2023-02-12T04:43:37.656Z,17.90
2023-02-12T04:48:52.338Z,17.95
2023-02-12T04:53:53.926Z,18.70
2023-02-12T04:58:58.007Z,20.58
2023-02-12T05:03:59.588Z,26.40
2023-02-12T05:09:01.292Z,30.75
2023-02-12T05:14:02.940Z,29.70
2023-02-12T05:19:04.662Z,30.70
2023-02-12T05:24:06.402Z,30.95
2023-02-12T05:29:07.987Z,27.88
2023-02-12T05:34:12.066Z,30.02
2023-02-12T05:39:13.730Z,25.63
2023-02-12T05:44:15.408Z,20.60
2023-02-12T05:49:17.079Z,24.63
2023-02-12T05:54:18.686Z,23.95
2023-02-12T05:59:22.806Z,25.17
2023-02-12T06:04:28.044Z,27.27
2023-02-12T06:09:29.663Z,27.92
2023-02-12T06:14:32.079Z,27.33
2023-02-12T06:19:33.829Z,27.70
2023-02-12T06:24:37.175Z,26.75
2023-02-12T06:29:38.745Z,26.35
2023-02-12T06:34:41.070Z,24.02
2023-02-12T06:39:42.649Z,23.08
2023-02-12T06:44:44.308Z,21.35
2023-02-12T06:49:45.863Z,22.75
2023-02-12T06:54:47.435Z,23.27
2023-02-12T06:59:49.886Z,21.33
2023-02-12T07:04:51.482Z,21.90
2023-02-12T07:09:53.062Z,24.48
2023-02-12T07:14:54.659Z,27.85
2023-02-12T07:19:56.400Z,27.70
2023-02-12T07:24:57.966Z,31.52
2023-02-12T07:29:59.595Z,31.52
2023-02-12T07:35:01.281Z,31.85
2023-02-12T07:40:03.393Z,32.17
2023-02-12T07:45:05.498Z,29.77
2023-02-12T07:50:07.448Z,26.08
2023-02-12T07:55:09.339Z,33.85
2023-02-12T08:00:11.420Z,29.73
2023-02-12T08:05:15.872Z,26.02
2023-02-12T08:10:22.267Z,27.77
2023-02-12T08:15:24.009Z,26.88
2023-02-12T08:20:25.750Z,24.58
2023-02-12T08:25:27.364Z,29.10
2023-02-12T08:30:29.013Z,24.30
2023-02-12T08:35:30.679Z,25.83
2023-02-12T08:40:33.259Z,25.33
2023-02-12T08:45:35.040Z,25.75
2023-02-12T08:50:36.850Z,29.38
2023-02-12T08:55:38.707Z,31.35
2023-02-12T09:00:40.551Z,27.83
2023-02-12T09:05:42.486Z,31.58
2023-02-12T09:10:45.264Z,30.13
2023-02-12T09:15:46.933Z,29.63
2023-02-12T09:20:48.656Z,31.77
2023-02-12T09:25:50.225Z,29.27
2023-02-12T09:30:51.975Z,24.42
2023-02-12T09:35:54.193Z,26.92
2023-02-12T09:41:20.657Z,23.50
2023-02-12T09:46:40.986Z,27.85
2023-02-12T09:51:51.272Z,28.48
2023-02-12T09:56:57.155Z,24.02
2023-02-12T10:01:59.651Z,20.73
2023-02-12T10:07:40.440Z,10.38
2023-02-12T10:12:55.771Z,9.63
2023-02-12T10:18:06.392Z,11.27
2023-02-12T10:23:33.125Z,9.75
2023-02-12T10:28:39.497Z,10.50
2023-02-12T10:33:49.322Z,10.73
2023-02-12T10:38:58.338Z,11.93
2023-02-12T10:43:59.964Z,15.53
2023-02-12T10:49:02.344Z,15.85
2023-02-12T10:54:43.982Z,17.98
2023-02-12T10:59:47.692Z,16.60
2023-02-12T11:04:50.017Z,19.08
2023-02-12T11:09:53.907Z,23.60
2023-02-12T11:14:58.471Z,18.35
2023-02-12T11:20:05.357Z,22.77
2023-02-12T11:25:16.895Z,20.35
2023-02-12T11:30:21.297Z,18.90
2023-02-12T11:35:25.932Z,18.23
2023-02-12T11:40:34.084Z,19.38
2023-02-12T11:45:45.083Z,14.93
2023-02-12T11:50:49.078Z,17.58
2023-02-12T11:55:57.316Z,15.73
2023-02-12T12:01:12.522Z,17.48
2023-02-12T12:06:21.993Z,16.52
2023-02-12T12:11:38.459Z,17.70
2023-02-12T12:17:10.452Z,16.05
2023-02-12T12:22:21.592Z,13.00
2023-02-12T12:27:46.179Z,10.35
2023-02-12T12:32:52.708Z,18.67
2023-02-12T12:37:59.883Z,20.42
2023-02-12T12:43:09.596Z,20.95
2023-02-12T12:48:32.138Z,19.67
2023-02-12T12:53:51.545Z,17.23
2023-02-12T12:59:14.290Z,19.98
2023-02-12T13:04:56.138Z,17.67
2023-02-12T13:10:22.127Z,18.90
2023-02-12T13:15:45.294Z,19.35
2023-02-12T13:21:01.623Z,22.85
2023-02-12T13:26:24.600Z,19.20
2023-02-12T13:31:33.662Z,16.45
2023-02-12T13:36:37.756Z,17.48
2023-02-12T13:41:43.926Z,17.55
2023-02-12T13:47:14.998Z,15.90
2023-02-12T13:52:28.591Z,16.52
2023-02-12T13:57:30.176Z,19.95
2023-02-12T14:02:34.800Z,18.15
2023-02-12T14:07:45.692Z,17.10
2023-02-12T14:12:47.509Z,16.27
2023-02-12T14:18:03.804Z,15.30
2023-02-12T14:23:27.569Z,17.05
2023-02-12T14:28:35.078Z,18.42
2023-02-12T14:33:36.743Z,18.52
2023-02-12T14:38:47.455Z,15.85
2023-02-12T14:44:01.393Z,13.73
2023-02-12T14:49:07.709Z,12.80
2023-02-12T14:54:26.615Z,12.55
2023-02-12T14:59:34.685Z,9.50
2023-02-12T15:04:38.512Z,9.85
2023-02-12T15:09:50.403Z,10.20
2023-02-12T15:15:04.815Z,9.18
2023-02-12T15:20:41.339Z,9.65
2023-02-12T15:25:43.529Z,8.18
2023-02-12T15:30:46.346Z,8.15
2023-02-12T15:35:48.851Z,7.05
2023-02-12T15:40:59.001Z,6.97
2023-02-12T15:46:03.114Z,6.47
2023-02-12T15:51:38.640Z,7.05
2023-02-12T15:56:41.818Z,6.88
2023-02-12T16:01:56.970Z,8.63
2023-02-12T16:07:00.377Z,7.72
2023-02-12T16:12:05.345Z,8.15
2023-02-12T16:17:25.565Z,7.32
2023-02-12T16:22:36.281Z,7.80
2023-02-12T16:27:38.026Z,7.55
2023-02-12T16:32:42.380Z,7.80
2023-02-12T16:37:49.631Z,7.18
2023-02-12T16:42:51.423Z,7.47
2023-02-12T16:48:04.205Z,7.60
2023-02-12T16:53:25.678Z,7.15
2023-02-12T16:58:28.694Z,7.38
2023-02-12T17:03:30.850Z,9.07
2023-02-12T17:08:32.672Z,8.98
2023-02-12T17:13:34.332Z,8.18
2023-02-12T17:18:36.145Z,8.30
2023-02-12T17:23:40.435Z,8.45
2023-02-12T17:28:42.335Z,7.07
2023-02-12T17:33:44.620Z,7.35
2023-02-12T17:38:46.576Z,9.23
2023-02-12T17:43:48.362Z,9.07
2023-02-12T17:48:50.251Z,9.43
2023-02-12T17:53:51.981Z,7.95
2023-02-12T17:58:53.772Z,10.20
2023-02-12T18:03:58.905Z,8.57
2023-02-12T18:09:01.987Z,10.07
2023-02-12T18:14:03.839Z,8.55
2023-02-12T18:19:06.272Z,7.50
2023-02-12T18:24:08.538Z,9.27
2023-02-12T18:29:10.272Z,10.57
2023-02-12T18:34:12.808Z,10.00
2023-02-12T18:39:14.409Z,10.68
2023-02-12T18:44:16.461Z,10.00
2023-02-12T18:49:18.283Z,11.90
2023-02-12T18:54:20.562Z,10.25
2023-02-12T18:59:23.263Z,10.75
2023-02-12T19:04:27.995Z,10.10
2023-02-12T19:09:29.745Z,11.82
2023-02-12T19:14:31.557Z,11.45
2023-02-12T19:19:33.306Z,11.80
2023-02-12T19:24:45.523Z,10.20
2023-02-12T19:29:47.733Z,12.85
2023-02-12T19:34:49.311Z,13.45
2023-02-12T19:39:51.162Z,12.70
2023-02-12T19:44:52.955Z,11.05
2023-02-12T19:49:55.078Z,13.07
2023-02-12T19:54:57.002Z,12.80
2023-02-12T19:59:58.633Z,13.63
2023-02-12T20:05:00.459Z,12.90
2023-02-12T20:10:02.052Z,18.00
2023-02-12T20:15:04.424Z,13.05
2023-02-12T20:20:07.365Z,14.00
2023-02-12T20:25:08.961Z,15.75
2023-02-12T20:30:10.985Z,12.13
2023-02-12T20:35:13.907Z,12.60
2023-02-12T20:40:15.723Z,13.55
2023-02-12T20:45:17.444Z,11.63
2023-02-12T20:50:19.304Z,11.98
2023-02-12T20:55:21.086Z,11.88
2023-02-12T21:00:23.047Z,11.65
2023-02-12T21:05:24.802Z,10.20
2023-02-12T21:10:28.667Z,11.65
2023-02-12T21:15:31.394Z,10.55
2023-02-12T21:20:33.097Z,10.63
2023-02-12T21:25:34.693Z,14.07
2023-02-12T21:30:38.566Z,11.50
2023-02-12T21:35:40.713Z,11.00
2023-02-12T21:40:42.314Z,11.75
2023-02-12T21:45:51.853Z,13.13
2023-02-12T21:50:53.589Z,12.95
2023-02-12T21:55:55.592Z,14.13
2023-02-12T22:00:58.075Z,12.35
2023-02-12T22:06:02.196Z,13.00
2023-02-12T22:11:09.541Z,13.13
2023-02-12T22:16:14.336Z,11.73
2023-02-12T22:21:18.016Z,12.98
2023-02-12T22:26:24.030Z,12.38
2023-02-12T22:31:29.519Z,13.15
2023-02-12T22:36:32.008Z,17.60
2023-02-12T22:41:34.112Z,15.55
2023-02-12T22:46:36.184Z,16.25
2023-02-12T22:51:39.528Z,13.60
2023-02-12T22:56:42.039Z,13.77
2023-02-12T23:01:43.744Z,15.27
2023-02-12T23:06:45.961Z,11.65
2023-02-12T23:11:47.933Z,15.43
2023-02-12T23:16:49.499Z,15.20
2023-02-12T23:21:51.344Z,14.90
2023-02-12T23:26:53.725Z,16.83
2023-02-12T23:31:55.329Z,14.05
2023-02-12T23:36:57.260Z,14.50
2023-02-12T23:41:58.859Z,15.25
2023-02-12T23:47:02.308Z,15.07
2023-02-12T23:52:04.107Z,14.88
2023-02-12T23:57:05.737Z,13.68
